sensor_id;sensor_type;location;lat;lon;timestamp;temperature;humidity
37560;DHT22;23398;50.928;7.084;2022-12-05T00:01:23;8.00;75.90
37560;DHT22;23398;50.928;7.084;2022-12-05T00:03:50;7.90;76.00
37560;DHT22;23398;50.928;7.084;2022-12-05T00:06:17;8.00;75.80
37560;DHT22;23398;50.928;7.084;2022-12-05T00:08:43;8.00;75.70
37560;DHT22;23398;50.928;7.084;2022-12-05T00:11:14;8.00;75.70
37560;DHT22;23398;50.928;7.084;2022-12-05T00:13:41;8.00;75.80
37560;DHT22;23398;50.928;7.084;2022-12-05T00:16:09;8.00;75.70
37560;DHT22;23398;50.928;7.084;2022-12-05T00:18:35;8.00;75.70
37560;DHT22;23398;50.928;7.084;2022-12-05T00:21:01;8.00;76.40
37560;DHT22;23398;50.928;7.084;2022-12-05T00:23:26;8.00;75.60
37560;DHT22;23398;50.928;7.084;2022-12-05T00:25:52;8.00;75.60
37560;DHT22;23398;50.928;7.084;2022-12-05T00:28:17;8.00;75.50
37560;DHT22;23398;50.928;7.084;2022-12-05T00:30:43;8.00;75.60
37560;DHT22;23398;50.928;7.084;2022-12-05T00:33:08;8.00;75.60
37560;DHT22;23398;50.928;7.084;2022-12-05T00:35:34;8.00;75.60
37560;DHT22;23398;50.928;7.084;2022-12-05T00:37:59;8.00;75.70
37560;DHT22;23398;50.928;7.084;2022-12-05T00:40:25;8.00;75.70
37560;DHT22;23398;50.928;7.084;2022-12-05T00:42:51;8.00;75.80
37560;DHT22;23398;50.928;7.084;2022-12-05T00:45:16;8.00;75.90
37560;DHT22;23398;50.928;7.084;2022-12-05T00:47:42;8.00;75.80
37560;DHT22;23398;50.928;7.084;2022-12-05T00:50:08;8.00;75.80
37560;DHT22;23398;50.928;7.084;2022-12-05T00:52:33;8.10;75.90
37560;DHT22;23398;50.928;7.084;2022-12-05T00:54:59;8.00;75.80
37560;DHT22;23398;50.928;7.084;2022-12-05T00:57:24;8.00;75.90
37560;DHT22;23398;50.928;7.084;2022-12-05T00:59:50;8.00;75.90
37560;DHT22;23398;50.928;7.084;2022-12-05T01:02:15;8.00;76.00
37560;DHT22;23398;50.928;7.084;2022-12-05T01:04:41;8.00;76.10
37560;DHT22;23398;50.928;7.084;2022-12-05T01:07:06;8.00;76.30
37560;DHT22;23398;50.928;7.084;2022-12-05T01:09:32;8.00;76.40
37560;DHT22;23398;50.928;7.084;2022-12-05T01:11:58;8.00;77.10
37560;DHT22;23398;50.928;7.084;2022-12-05T01:14:24;8.00;76.40
37560;DHT22;23398;50.928;7.084;2022-12-05T01:16:52;8.00;76.30
37560;DHT22;23398;50.928;7.084;2022-12-05T01:19:25;8.00;76.30
37560;DHT22;23398;50.928;7.084;2022-12-05T01:21:51;8.00;76.30
37560;DHT22;23398;50.928;7.084;2022-12-05T01:24:18;8.10;76.30
37560;DHT22;23398;50.928;7.084;2022-12-05T01:26:46;8.00;76.10
37560;DHT22;23398;50.928;7.084;2022-12-05T01:29:14;8.00;75.90
37560;DHT22;23398;50.928;7.084;2022-12-05T01:31:40;8.00;76.00
37560;DHT22;23398;50.928;7.084;2022-12-05T01:34:09;8.00;76.10
37560;DHT22;23398;50.928;7.084;2022-12-05T01:36:35;8.00;76.20
37560;DHT22;23398;50.928;7.084;2022-12-05T01:39:01;8.10;76.50
37560;DHT22;23398;50.928;7.084;2022-12-05T01:41:30;8.00;76.60
37560;DHT22;23398;50.928;7.084;2022-12-05T01:44:56;8.00;76.60
37560;DHT22;23398;50.928;7.084;2022-12-05T01:46:54;8.10;76.80
37560;DHT22;23398;50.928;7.084;2022-12-05T01:49:40;8.00;76.60
37560;DHT22;23398;50.928;7.084;2022-12-05T01:52:10;8.00;76.90
37560;DHT22;23398;50.928;7.084;2022-12-05T01:54:37;8.10;76.80
37560;DHT22;23398;50.928;7.084;2022-12-05T01:57:07;8.00;76.80
37560;DHT22;23398;50.928;7.084;2022-12-05T01:59:37;8.10;77.00
37560;DHT22;23398;50.928;7.084;2022-12-05T02:02:06;8.10;77.50
37560;DHT22;23398;50.928;7.084;2022-12-05T02:04:36;8.00;77.50
37560;DHT22;23398;50.928;7.084;2022-12-05T02:07:02;8.00;77.80
37560;DHT22;23398;50.928;7.084;2022-12-05T02:09:28;8.10;78.10
37560;DHT22;23398;50.928;7.084;2022-12-05T02:11:57;8.10;78.10
37560;DHT22;23398;50.928;7.084;2022-12-05T02:17:20;8.10;78.40
37560;DHT22;23398;50.928;7.084;2022-12-05T02:20:05;8.10;78.40
37560;DHT22;23398;50.928;7.084;2022-12-05T02:22:47;8.10;78.80
37560;DHT22;23398;50.928;7.084;2022-12-05T02:28:20;8.10;78.60
37560;DHT22;23398;50.928;7.084;2022-12-05T02:30:56;8.10;78.70
37560;DHT22;23398;50.928;7.084;2022-12-05T02:33:36;8.10;79.10
37560;DHT22;23398;50.928;7.084;2022-12-05T02:36:28;8.10;79.50
37560;DHT22;23398;50.928;7.084;2022-12-05T02:39:03;8.10;79.50
37560;DHT22;23398;50.928;7.084;2022-12-05T02:41:39;8.10;79.50
37560;DHT22;23398;50.928;7.084;2022-12-05T02:44:15;8.10;79.70
37560;DHT22;23398;50.928;7.084;2022-12-05T02:46:44;8.10;79.90
37560;DHT22;23398;50.928;7.084;2022-12-05T02:49:16;8.10;79.60
37560;DHT22;23398;50.928;7.084;2022-12-05T02:51:47;8.00;79.70
37560;DHT22;23398;50.928;7.084;2022-12-05T02:54:17;8.10;79.80
37560;DHT22;23398;50.928;7.084;2022-12-05T02:56:45;8.00;79.80
37560;DHT22;23398;50.928;7.084;2022-12-05T02:59:11;8.00;79.90
37560;DHT22;23398;50.928;7.084;2022-12-05T03:01:36;8.00;79.70
37560;DHT22;23398;50.928;7.084;2022-12-05T03:04:03;8.00;79.40
37560;DHT22;23398;50.928;7.084;2022-12-05T03:06:37;8.00;79.00
37560;DHT22;23398;50.928;7.084;2022-12-05T03:09:10;7.90;78.40
37560;DHT22;23398;50.928;7.084;2022-12-05T03:11:41;7.90;78.00
37560;DHT22;23398;50.928;7.084;2022-12-05T03:14:16;7.90;77.80
37560;DHT22;23398;50.928;7.084;2022-12-05T03:16:51;7.90;78.00
37560;DHT22;23398;50.928;7.084;2022-12-05T03:19:26;7.80;78.00
37560;DHT22;23398;50.928;7.084;2022-12-05T03:22:05;7.80;78.20
37560;DHT22;23398;50.928;7.084;2022-12-05T03:24:37;7.70;78.30
37560;DHT22;23398;50.928;7.084;2022-12-05T03:30:09;7.60;79.20
37560;DHT22;23398;50.928;7.084;2022-12-05T03:32:39;7.60;79.20
37560;DHT22;23398;50.928;7.084;2022-12-05T03:37:51;7.50;79.30
37560;DHT22;23398;50.928;7.084;2022-12-05T03:40:27;7.40;79.60
37560;DHT22;23398;50.928;7.084;2022-12-05T03:45:39;7.70;79.80
37560;DHT22;23398;50.928;7.084;2022-12-05T03:48:21;7.30;79.40
37560;DHT22;23398;50.928;7.084;2022-12-05T03:50:48;7.20;79.50
37560;DHT22;23398;50.928;7.084;2022-12-05T03:53:23;7.20;79.20
37560;DHT22;23398;50.928;7.084;2022-12-05T03:56:01;7.10;79.20
37560;DHT22;23398;50.928;7.084;2022-12-05T03:58:36;7.00;79.40
37560;DHT22;23398;50.928;7.084;2022-12-05T04:01:04;7.10;79.40
37560;DHT22;23398;50.928;7.084;2022-12-05T04:03:56;7.00;79.30
37560;DHT22;23398;50.928;7.084;2022-12-05T04:06:21;7.00;79.60
37560;DHT22;23398;50.928;7.084;2022-12-05T04:09:02;6.90;79.50
37560;DHT22;23398;50.928;7.084;2022-12-05T04:11:32;6.90;80.00
37560;DHT22;23398;50.928;7.084;2022-12-05T04:14:06;6.90;79.80
37560;DHT22;23398;50.928;7.084;2022-12-05T04:16:40;6.90;79.90
37560;DHT22;23398;50.928;7.084;2022-12-05T04:22:33;6.90;80.00
37560;DHT22;23398;50.928;7.084;2022-12-05T04:25:00;6.80;79.90
37560;DHT22;23398;50.928;7.084;2022-12-05T04:33:39;6.80;80.60
37560;DHT22;23398;50.928;7.084;2022-12-05T04:38:49;6.80;81.10
37560;DHT22;23398;50.928;7.084;2022-12-05T04:41:21;6.80;80.70
37560;DHT22;23398;50.928;7.084;2022-12-05T04:43:50;6.70;80.90
37560;DHT22;23398;50.928;7.084;2022-12-05T04:46:18;6.80;80.90
37560;DHT22;23398;50.928;7.084;2022-12-05T04:48:48;6.70;80.80
37560;DHT22;23398;50.928;7.084;2022-12-05T04:51:23;6.70;81.10
37560;DHT22;23398;50.928;7.084;2022-12-05T04:53:54;6.70;80.90
37560;DHT22;23398;50.928;7.084;2022-12-05T04:56:21;6.70;81.00
37560;DHT22;23398;50.928;7.084;2022-12-05T04:58:48;6.70;80.80
37560;DHT22;23398;50.928;7.084;2022-12-05T05:01:30;6.70;80.70
37560;DHT22;23398;50.928;7.084;2022-12-05T05:04:11;6.70;80.80
37560;DHT22;23398;50.928;7.084;2022-12-05T05:06:40;6.70;80.80
37560;DHT22;23398;50.928;7.084;2022-12-05T05:09:06;6.70;80.40
37560;DHT22;23398;50.928;7.084;2022-12-05T05:11:33;6.70;80.50
37560;DHT22;23398;50.928;7.084;2022-12-05T05:14:00;6.60;80.30
37560;DHT22;23398;50.928;7.084;2022-12-05T05:16:35;6.60;80.30
37560;DHT22;23398;50.928;7.084;2022-12-05T05:19:01;6.60;80.40
37560;DHT22;23398;50.928;7.084;2022-12-05T05:21:29;6.60;80.10
37560;DHT22;23398;50.928;7.084;2022-12-05T05:23:56;6.60;79.90
37560;DHT22;23398;50.928;7.084;2022-12-05T05:26:23;6.60;79.80
37560;DHT22;23398;50.928;7.084;2022-12-05T05:28:49;6.60;79.80
37560;DHT22;23398;50.928;7.084;2022-12-05T05:31:16;6.60;79.90
37560;DHT22;23398;50.928;7.084;2022-12-05T05:33:42;6.50;79.90
37560;DHT22;23398;50.928;7.084;2022-12-05T05:36:11;6.50;80.10
37560;DHT22;23398;50.928;7.084;2022-12-05T05:38:38;6.50;80.20
37560;DHT22;23398;50.928;7.084;2022-12-05T05:41:04;6.50;80.90
37560;DHT22;23398;50.928;7.084;2022-12-05T05:43:30;6.50;80.00
37560;DHT22;23398;50.928;7.084;2022-12-05T05:45:56;6.50;80.00
37560;DHT22;23398;50.928;7.084;2022-12-05T05:48:22;6.50;79.90
37560;DHT22;23398;50.928;7.084;2022-12-05T05:50:47;6.50;80.00
37560;DHT22;23398;50.928;7.084;2022-12-05T05:53:13;6.50;80.00
37560;DHT22;23398;50.928;7.084;2022-12-05T05:55:39;6.50;80.00
37560;DHT22;23398;50.928;7.084;2022-12-05T05:58:05;6.50;80.00
37560;DHT22;23398;50.928;7.084;2022-12-05T06:00:31;6.50;80.10
37560;DHT22;23398;50.928;7.084;2022-12-05T06:02:56;6.50;80.10
37560;DHT22;23398;50.928;7.084;2022-12-05T06:05:22;6.50;80.10
37560;DHT22;23398;50.928;7.084;2022-12-05T06:07:47;6.40;80.00
37560;DHT22;23398;50.928;7.084;2022-12-05T06:10:13;6.40;80.00
37560;DHT22;23398;50.928;7.084;2022-12-05T06:12:39;6.40;80.00
37560;DHT22;23398;50.928;7.084;2022-12-05T06:15:05;6.50;80.10
37560;DHT22;23398;50.928;7.084;2022-12-05T06:17:31;6.40;80.70
37560;DHT22;23398;50.928;7.084;2022-12-05T06:19:56;6.40;79.80
37560;DHT22;23398;50.928;7.084;2022-12-05T06:22:22;6.40;79.80
37560;DHT22;23398;50.928;7.084;2022-12-05T06:24:47;6.40;79.80
37560;DHT22;23398;50.928;7.084;2022-12-05T06:27:13;6.40;79.80
37560;DHT22;23398;50.928;7.084;2022-12-05T06:29:38;6.40;79.80
37560;DHT22;23398;50.928;7.084;2022-12-05T06:32:04;6.40;79.80
37560;DHT22;23398;50.928;7.084;2022-12-05T06:34:30;6.40;80.20
37560;DHT22;23398;50.928;7.084;2022-12-05T06:36:57;6.40;79.80
37560;DHT22;23398;50.928;7.084;2022-12-05T06:39:23;6.40;79.90
37560;DHT22;23398;50.928;7.084;2022-12-05T06:41:49;6.40;80.00
37560;DHT22;23398;50.928;7.084;2022-12-05T06:44:15;6.40;80.00
37560;DHT22;23398;50.928;7.084;2022-12-05T06:46:41;6.40;80.00
37560;DHT22;23398;50.928;7.084;2022-12-05T06:49:08;6.70;80.40
37560;DHT22;23398;50.928;7.084;2022-12-05T06:51:35;6.40;80.10
37560;DHT22;23398;50.928;7.084;2022-12-05T06:54:00;6.40;80.10
37560;DHT22;23398;50.928;7.084;2022-12-05T06:56:26;6.40;80.10
37560;DHT22;23398;50.928;7.084;2022-12-05T06:58:52;6.40;80.20
37560;DHT22;23398;50.928;7.084;2022-12-05T07:01:20;6.40;80.40
37560;DHT22;23398;50.928;7.084;2022-12-05T07:04:19;6.40;80.30
37560;DHT22;23398;50.928;7.084;2022-12-05T07:06:47;6.50;80.40
37560;DHT22;23398;50.928;7.084;2022-12-05T07:09:16;6.40;80.20
37560;DHT22;23398;50.928;7.084;2022-12-05T07:11:48;6.40;80.20
37560;DHT22;23398;50.928;7.084;2022-12-05T07:14:14;6.50;80.40
37560;DHT22;23398;50.928;7.084;2022-12-05T07:16:40;6.50;80.40
37560;DHT22;23398;50.928;7.084;2022-12-05T07:19:06;6.50;80.40
37560;DHT22;23398;50.928;7.084;2022-12-05T07:21:31;6.50;80.30
37560;DHT22;23398;50.928;7.084;2022-12-05T07:23:57;6.50;80.30
37560;DHT22;23398;50.928;7.084;2022-12-05T07:26:23;6.50;80.30
37560;DHT22;23398;50.928;7.084;2022-12-05T07:28:49;6.50;80.20
37560;DHT22;23398;50.928;7.084;2022-12-05T07:31:19;6.50;80.30
37560;DHT22;23398;50.928;7.084;2022-12-05T07:33:46;6.50;80.60
37560;DHT22;23398;50.928;7.084;2022-12-05T07:36:18;6.60;80.70
37560;DHT22;23398;50.928;7.084;2022-12-05T07:38:44;6.60;80.50
37560;DHT22;23398;50.928;7.084;2022-12-05T07:41:18;6.60;80.50
37560;DHT22;23398;50.928;7.084;2022-12-05T07:43:44;6.60;80.80
37560;DHT22;23398;50.928;7.084;2022-12-05T07:46:10;6.60;80.70
37560;DHT22;23398;50.928;7.084;2022-12-05T07:48:36;6.60;80.70
37560;DHT22;23398;50.928;7.084;2022-12-05T07:51:03;6.70;80.70
37560;DHT22;23398;50.928;7.084;2022-12-05T07:53:30;6.70;80.70
37560;DHT22;23398;50.928;7.084;2022-12-05T07:56:00;6.70;80.80
37560;DHT22;23398;50.928;7.084;2022-12-05T07:58:29;6.70;81.00
37560;DHT22;23398;50.928;7.084;2022-12-05T08:00:56;6.70;80.80
37560;DHT22;23398;50.928;7.084;2022-12-05T08:03:22;6.80;80.50
37560;DHT22;23398;50.928;7.084;2022-12-05T08:05:48;6.80;80.60
37560;DHT22;23398;50.928;7.084;2022-12-05T08:08:14;6.80;80.60
37560;DHT22;23398;50.928;7.084;2022-12-05T08:10:39;6.80;80.70
37560;DHT22;23398;50.928;7.084;2022-12-05T08:13:05;6.80;80.70
37560;DHT22;23398;50.928;7.084;2022-12-05T08:15:34;6.80;80.50
37560;DHT22;23398;50.928;7.084;2022-12-05T08:18:00;6.80;80.40
37560;DHT22;23398;50.928;7.084;2022-12-05T08:20:25;6.90;80.60
37560;DHT22;23398;50.928;7.084;2022-12-05T08:22:52;6.90;80.70
37560;DHT22;23398;50.928;7.084;2022-12-05T08:25:18;6.90;80.60
37560;DHT22;23398;50.928;7.084;2022-12-05T08:27:44;6.90;80.50
37560;DHT22;23398;50.928;7.084;2022-12-05T08:30:09;6.90;80.50
37560;DHT22;23398;50.928;7.084;2022-12-05T08:32:35;6.90;80.50
37560;DHT22;23398;50.928;7.084;2022-12-05T08:35:00;6.90;80.30
37560;DHT22;23398;50.928;7.084;2022-12-05T08:37:26;6.90;80.00
37560;DHT22;23398;50.928;7.084;2022-12-05T08:39:51;6.90;79.80
37560;DHT22;23398;50.928;7.084;2022-12-05T08:42:17;6.90;79.90
37560;DHT22;23398;50.928;7.084;2022-12-05T08:44:43;6.90;80.20
37560;DHT22;23398;50.928;7.084;2022-12-05T08:47:08;6.90;80.50
37560;DHT22;23398;50.928;7.084;2022-12-05T08:49:34;6.90;80.80
37560;DHT22;23398;50.928;7.084;2022-12-05T08:51:59;7.00;81.10
37560;DHT22;23398;50.928;7.084;2022-12-05T08:54:25;7.00;81.10
37560;DHT22;23398;50.928;7.084;2022-12-05T08:56:51;7.10;81.20
37560;DHT22;23398;50.928;7.084;2022-12-05T08:59:17;7.10;81.10
37560;DHT22;23398;50.928;7.084;2022-12-05T09:01:42;7.10;81.10
37560;DHT22;23398;50.928;7.084;2022-12-05T09:04:08;7.20;80.90
37560;DHT22;23398;50.928;7.084;2022-12-05T09:06:34;7.20;80.80
37560;DHT22;23398;50.928;7.084;2022-12-05T09:09:04;7.20;80.60
37560;DHT22;23398;50.928;7.084;2022-12-05T09:11:32;7.30;80.80
37560;DHT22;23398;50.928;7.084;2022-12-05T09:14:00;7.30;80.80
37560;DHT22;23398;50.928;7.084;2022-12-05T09:16:28;7.30;80.80
37560;DHT22;23398;50.928;7.084;2022-12-05T09:18:54;7.20;80.70
37560;DHT22;23398;50.928;7.084;2022-12-05T09:21:22;7.30;80.70
37560;DHT22;23398;50.928;7.084;2022-12-05T09:23:49;7.30;80.30
37560;DHT22;23398;50.928;7.084;2022-12-05T09:26:17;7.30;79.90
37560;DHT22;23398;50.928;7.084;2022-12-05T09:28:44;7.30;79.70
37560;DHT22;23398;50.928;7.084;2022-12-05T09:31:16;7.40;80.00
37560;DHT22;23398;50.928;7.084;2022-12-05T09:33:42;7.40;80.20
37560;DHT22;23398;50.928;7.084;2022-12-05T09:36:12;7.40;80.00
37560;DHT22;23398;50.928;7.084;2022-12-05T09:38:38;7.40;79.90
37560;DHT22;23398;50.928;7.084;2022-12-05T09:43:59;7.50;80.30
37560;DHT22;23398;50.928;7.084;2022-12-05T09:46:48;7.50;80.10
37560;DHT22;23398;50.928;7.084;2022-12-05T09:49:16;7.60;79.90
37560;DHT22;23398;50.928;7.084;2022-12-05T09:51:45;7.60;79.70
37560;DHT22;23398;50.928;7.084;2022-12-05T09:54:12;7.60;79.70
37560;DHT22;23398;50.928;7.084;2022-12-05T09:56:40;7.60;79.80
37560;DHT22;23398;50.928;7.084;2022-12-05T09:59:11;7.70;79.60
37560;DHT22;23398;50.928;7.084;2022-12-05T10:16:05;7.90;78.50
37560;DHT22;23398;50.928;7.084;2022-12-05T10:18:36;7.90;78.40
37560;DHT22;23398;50.928;7.084;2022-12-05T10:21:24;8.00;78.50
37560;DHT22;23398;50.928;7.084;2022-12-05T10:24:00;8.00;79.20
37560;DHT22;23398;50.928;7.084;2022-12-05T10:26:32;8.00;79.10
37560;DHT22;23398;50.928;7.084;2022-12-05T10:31:53;8.10;78.70
37560;DHT22;23398;50.928;7.084;2022-12-05T10:34:41;8.10;78.70
37560;DHT22;23398;50.928;7.084;2022-12-05T10:39:38;8.10;78.50
37560;DHT22;23398;50.928;7.084;2022-12-05T10:42:06;8.10;78.50
37560;DHT22;23398;50.928;7.084;2022-12-05T10:44:33;8.10;78.60
37560;DHT22;23398;50.928;7.084;2022-12-05T10:46:59;8.10;78.70
37560;DHT22;23398;50.928;7.084;2022-12-05T10:49:26;8.10;78.60
37560;DHT22;23398;50.928;7.084;2022-12-05T10:51:52;8.10;78.70
37560;DHT22;23398;50.928;7.084;2022-12-05T10:54:22;8.10;78.70
37560;DHT22;23398;50.928;7.084;2022-12-05T10:56:50;8.10;78.90
37560;DHT22;23398;50.928;7.084;2022-12-05T10:59:22;8.10;79.00
37560;DHT22;23398;50.928;7.084;2022-12-05T11:01:51;8.10;79.20
37560;DHT22;23398;50.928;7.084;2022-12-05T11:06:50;8.10;79.40
37560;DHT22;23398;50.928;7.084;2022-12-05T11:09:48;8.10;79.50
37560;DHT22;23398;50.928;7.084;2022-12-05T11:12:22;8.20;80.10
37560;DHT22;23398;50.928;7.084;2022-12-05T11:15:02;8.20;79.80
37560;DHT22;23398;50.928;7.084;2022-12-05T11:17:37;8.20;79.80
37560;DHT22;23398;50.928;7.084;2022-12-05T11:22:51;8.20;79.90
37560;DHT22;23398;50.928;7.084;2022-12-05T11:25:34;8.30;79.70
37560;DHT22;23398;50.928;7.084;2022-12-05T11:30:56;8.30;79.20
37560;DHT22;23398;50.928;7.084;2022-12-05T11:33:24;8.30;78.70
37560;DHT22;23398;50.928;7.084;2022-12-05T11:35:53;8.40;78.80
37560;DHT22;23398;50.928;7.084;2022-12-05T11:38:24;8.40;78.90
37560;DHT22;23398;50.928;7.084;2022-12-05T11:41:08;8.50;79.00
37560;DHT22;23398;50.928;7.084;2022-12-05T11:46:45;8.50;79.00
37560;DHT22;23398;50.928;7.084;2022-12-05T11:49:36;8.50;79.10
37560;DHT22;23398;50.928;7.084;2022-12-05T11:52:07;8.50;79.00
37560;DHT22;23398;50.928;7.084;2022-12-05T11:54:58;8.60;79.00
37560;DHT22;23398;50.928;7.084;2022-12-05T11:57:51;8.60;78.80
37560;DHT22;23398;50.928;7.084;2022-12-05T12:08:28;8.60;79.60
37560;DHT22;23398;50.928;7.084;2022-12-05T12:14:09;8.60;78.90
37560;DHT22;23398;50.928;7.084;2022-12-05T12:24:51;8.60;79.30
37560;DHT22;23398;50.928;7.084;2022-12-05T12:30:35;8.60;79.80
37560;DHT22;23398;50.928;7.084;2022-12-05T12:33:14;8.70;80.10
37560;DHT22;23398;50.928;7.084;2022-12-05T12:35:50;8.70;80.00
37560;DHT22;23398;50.928;7.084;2022-12-05T12:40:55;8.80;80.10
37560;DHT22;23398;50.928;7.084;2022-12-05T12:46:13;8.90;79.90
37560;DHT22;23398;50.928;7.084;2022-12-05T12:51:23;9.10;79.80
37560;DHT22;23398;50.928;7.084;2022-12-05T12:54:02;9.10;79.50
37560;DHT22;23398;50.928;7.084;2022-12-05T13:02:15;9.30;78.20
37560;DHT22;23398;50.928;7.084;2022-12-05T13:05:30;9.40;77.80
37560;DHT22;23398;50.928;7.084;2022-12-05T13:08:28;9.40;77.40
37560;DHT22;23398;50.928;7.084;2022-12-05T13:10:52;9.40;77.10
37560;DHT22;23398;50.928;7.084;2022-12-05T13:13:22;9.40;76.80
37560;DHT22;23398;50.928;7.084;2022-12-05T13:15:54;9.40;76.40
37560;DHT22;23398;50.928;7.084;2022-12-05T13:18:23;9.40;76.20
37560;DHT22;23398;50.928;7.084;2022-12-05T13:21:01;9.40;76.10
37560;DHT22;23398;50.928;7.084;2022-12-05T13:23:44;9.40;76.10
37560;DHT22;23398;50.928;7.084;2022-12-05T13:26:11;9.30;75.80
37560;DHT22;23398;50.928;7.084;2022-12-05T13:28:54;9.40;75.70
37560;DHT22;23398;50.928;7.084;2022-12-05T13:31:41;9.30;75.60
37560;DHT22;23398;50.928;7.084;2022-12-05T13:34:33;9.20;75.70
37560;DHT22;23398;50.928;7.084;2022-12-05T13:37:24;9.10;76.00
37560;DHT22;23398;50.928;7.084;2022-12-05T13:40:26;9.20;76.30
37560;DHT22;23398;50.928;7.084;2022-12-05T13:43:13;9.10;76.20
37560;DHT22;23398;50.928;7.084;2022-12-05T13:45:42;9.00;76.30
37560;DHT22;23398;50.928;7.084;2022-12-05T13:48:21;9.00;76.30
37560;DHT22;23398;50.928;7.084;2022-12-05T13:51:01;9.00;76.60
37560;DHT22;23398;50.928;7.084;2022-12-05T13:53:37;9.00;76.70
37560;DHT22;23398;50.928;7.084;2022-12-05T13:56:25;9.00;76.60
37560;DHT22;23398;50.928;7.084;2022-12-05T13:58:55;8.90;76.60
37560;DHT22;23398;50.928;7.084;2022-12-05T14:25:54;8.70;76.20
37560;DHT22;23398;50.928;7.084;2022-12-05T14:39:27;8.50;76.70
37560;DHT22;23398;50.928;7.084;2022-12-05T14:41:58;8.50;76.80
37560;DHT22;23398;50.928;7.084;2022-12-05T14:44:26;8.40;76.70
37560;DHT22;23398;50.928;7.084;2022-12-05T14:47:00;8.40;76.90
37560;DHT22;23398;50.928;7.084;2022-12-05T14:49:34;8.40;76.90
37560;DHT22;23398;50.928;7.084;2022-12-05T14:52:22;8.40;76.90
37560;DHT22;23398;50.928;7.084;2022-12-05T14:54:50;8.40;77.00
37560;DHT22;23398;50.928;7.084;2022-12-05T14:57:18;8.30;77.20
37560;DHT22;23398;50.928;7.084;2022-12-05T14:59:50;8.30;77.60
37560;DHT22;23398;50.928;7.084;2022-12-05T15:02:32;8.30;77.80
37560;DHT22;23398;50.928;7.084;2022-12-05T15:05:25;8.30;78.00
37560;DHT22;23398;50.928;7.084;2022-12-05T15:07:52;8.30;78.00
37560;DHT22;23398;50.928;7.084;2022-12-05T15:10:28;8.30;77.90
37560;DHT22;23398;50.928;7.084;2022-12-05T15:13:04;8.30;78.10
37560;DHT22;23398;50.928;7.084;2022-12-05T15:18:23;8.30;78.10
37560;DHT22;23398;50.928;7.084;2022-12-05T15:21:13;8.20;78.20
37560;DHT22;23398;50.928;7.084;2022-12-05T15:23:58;8.20;79.00
37560;DHT22;23398;50.928;7.084;2022-12-05T15:31:55;8.20;77.80
37560;DHT22;23398;50.928;7.084;2022-12-05T15:39:57;8.20;77.50
37560;DHT22;23398;50.928;7.084;2022-12-05T15:42:29;8.10;77.20
37560;DHT22;23398;50.928;7.084;2022-12-05T15:47:44;8.00;77.30
37560;DHT22;23398;50.928;7.084;2022-12-05T15:55:41;8.00;77.40
37560;DHT22;23398;50.928;7.084;2022-12-05T16:00:48;7.90;77.60
37560;DHT22;23398;50.928;7.084;2022-12-05T16:03:39;7.80;77.60
37560;DHT22;23398;50.928;7.084;2022-12-05T16:06:14;7.80;78.30
37560;DHT22;23398;50.928;7.084;2022-12-05T16:08:45;7.70;78.10
37560;DHT22;23398;50.928;7.084;2022-12-05T16:11:12;7.70;78.20
37560;DHT22;23398;50.928;7.084;2022-12-05T16:13:46;7.60;78.20
37560;DHT22;23398;50.928;7.084;2022-12-05T16:16:21;7.60;78.70
37560;DHT22;23398;50.928;7.084;2022-12-05T16:18:49;7.60;79.00
37560;DHT22;23398;50.928;7.084;2022-12-05T16:21:37;7.50;78.90
37560;DHT22;23398;50.928;7.084;2022-12-05T16:26:38;7.50;79.90
37560;DHT22;23398;50.928;7.084;2022-12-05T16:29:06;7.40;79.10
37560;DHT22;23398;50.928;7.084;2022-12-05T16:31:34;7.40;79.20
37560;DHT22;23398;50.928;7.084;2022-12-05T16:34:06;7.40;79.30
37560;DHT22;23398;50.928;7.084;2022-12-05T16:36:33;7.30;79.40
37560;DHT22;23398;50.928;7.084;2022-12-05T16:39:01;7.30;79.50
37560;DHT22;23398;50.928;7.084;2022-12-05T16:41:34;7.30;79.70
37560;DHT22;23398;50.928;7.084;2022-12-05T16:44:01;7.30;80.10
37560;DHT22;23398;50.928;7.084;2022-12-05T16:51:44;7.20;80.60
37560;DHT22;23398;50.928;7.084;2022-12-05T16:54:10;7.20;80.30
37560;DHT22;23398;50.928;7.084;2022-12-05T16:56:35;7.20;80.30
37560;DHT22;23398;50.928;7.084;2022-12-05T16:59:03;7.20;80.50
37560;DHT22;23398;50.928;7.084;2022-12-05T17:01:29;7.20;80.60
37560;DHT22;23398;50.928;7.084;2022-12-05T17:03:55;7.20;80.80
37560;DHT22;23398;50.928;7.084;2022-12-05T17:06:22;7.20;81.00
37560;DHT22;23398;50.928;7.084;2022-12-05T17:08:49;7.20;80.90
37560;DHT22;23398;50.928;7.084;2022-12-05T17:11:45;7.20;81.00
37560;DHT22;23398;50.928;7.084;2022-12-05T17:14:15;7.20;81.40
37560;DHT22;23398;50.928;7.084;2022-12-05T17:16:42;7.20;80.70
37560;DHT22;23398;50.928;7.084;2022-12-05T17:19:11;7.20;80.50
37560;DHT22;23398;50.928;7.084;2022-12-05T17:21:38;7.20;80.50
37560;DHT22;23398;50.928;7.084;2022-12-05T17:24:06;7.20;80.60
37560;DHT22;23398;50.928;7.084;2022-12-05T17:26:32;7.20;80.70
37560;DHT22;23398;50.928;7.084;2022-12-05T17:28:57;7.10;80.80
37560;DHT22;23398;50.928;7.084;2022-12-05T17:31:24;7.10;80.90
37560;DHT22;23398;50.928;7.084;2022-12-05T17:33:51;7.10;81.00
37560;DHT22;23398;50.928;7.084;2022-12-05T17:36:17;7.10;81.00
37560;DHT22;23398;50.928;7.084;2022-12-05T17:38:45;7.10;80.90
37560;DHT22;23398;50.928;7.084;2022-12-05T17:41:19;7.10;80.80
37560;DHT22;23398;50.928;7.084;2022-12-05T17:43:46;7.10;80.80
37560;DHT22;23398;50.928;7.084;2022-12-05T17:46:17;7.10;80.70
37560;DHT22;23398;50.928;7.084;2022-12-05T17:48:43;7.10;80.70
37560;DHT22;23398;50.928;7.084;2022-12-05T17:51:09;7.10;80.40
37560;DHT22;23398;50.928;7.084;2022-12-05T17:53:39;7.10;80.20
37560;DHT22;23398;50.928;7.084;2022-12-05T17:56:06;7.10;80.10
37560;DHT22;23398;50.928;7.084;2022-12-05T17:58:32;7.10;80.30
37560;DHT22;23398;50.928;7.084;2022-12-05T18:00:57;7.10;80.30
37560;DHT22;23398;50.928;7.084;2022-12-05T18:03:23;7.10;80.20
37560;DHT22;23398;50.928;7.084;2022-12-05T18:05:49;7.10;80.10
37560;DHT22;23398;50.928;7.084;2022-12-05T18:08:15;7.10;80.10
37560;DHT22;23398;50.928;7.084;2022-12-05T18:10:46;7.00;80.00
37560;DHT22;23398;50.928;7.084;2022-12-05T18:13:12;7.00;80.20
37560;DHT22;23398;50.928;7.084;2022-12-05T18:15:40;7.00;80.20
37560;DHT22;23398;50.928;7.084;2022-12-05T18:18:06;7.00;80.30
37560;DHT22;23398;50.928;7.084;2022-12-05T18:20:33;7.00;80.10
37560;DHT22;23398;50.928;7.084;2022-12-05T18:23:00;7.00;80.10
37560;DHT22;23398;50.928;7.084;2022-12-05T18:25:27;7.00;80.00
37560;DHT22;23398;50.928;7.084;2022-12-05T18:27:52;6.90;80.00
37560;DHT22;23398;50.928;7.084;2022-12-05T18:30:18;6.90;80.10
37560;DHT22;23398;50.928;7.084;2022-12-05T18:32:44;6.90;80.90
37560;DHT22;23398;50.928;7.084;2022-12-05T18:35:09;6.90;80.10
37560;DHT22;23398;50.928;7.084;2022-12-05T18:37:36;6.90;80.00
37560;DHT22;23398;50.928;7.084;2022-12-05T18:40:05;6.90;80.10
37560;DHT22;23398;50.928;7.084;2022-12-05T18:42:31;6.90;80.10
37560;DHT22;23398;50.928;7.084;2022-12-05T18:44:57;6.90;80.10
37560;DHT22;23398;50.928;7.084;2022-12-05T18:47:22;7.00;80.40
37560;DHT22;23398;50.928;7.084;2022-12-05T18:49:49;6.90;80.20